PAFA/FAI METAR and TAF weather

Enter ICAO airport designator
Station Type Date Time Source
PAFA METAR 2019/08/25 01:53 UTC NOAA

PAFA 250153Z 21004KT 10SM FEW060 SCT180 16/02 A2976 RMK AO2 SLP081 T01610017


Station Type Date Time Source
PAFA Decoded METAR 2019/08/25 01:53 UTC NOAA

Station name not available
Aug 24, 2019 - 09:53 PM EDT / 2019.08.25 0153 UTC
Wind: from the SSW (210 degrees) at 5 MPH (4 KT):0
Visibility: 10 mile(s):0
Sky conditions: partly cloudy
Temperature: 61.0 F (16.1 C)
Dew Point: 35.1 F (1.7 C)
Relative Humidity: 37%
Pressure (altimeter): 29.76 in. Hg (1007 hPa)
ob: PAFA 250153Z 21004KT 10SM FEW060 SCT180 16/02 A2976 RMK AO2 SLP081 T01610017
cycle: 2

Station Type Date Time Source
PAFA TAF 2019/08/24 20:58 UTC NOAA

TAF
AMD PAFA 241958Z 2420/2524 25004KT P6SM SCT020 BKN050

Example: see airport list